New Germany, Canada
Current Conditions -  °F | °C
As of 4:00 PM on Saturday 25 Oct 2014 (Local Time) from CYZX Reporting Station
Overcast Overcast  
Wind Chill: 50°   Ceiling: 1300
Heat Index: 50°   Visibility: 12mi
Dew Point: 46°   Wind: 8mph
Humidity: 87%   Direction: 320°NW
Pressure: 29.53"   Gusts: NA
Location:  44.55°N, 64.72°W
Report Text: CYZX 251900Z 32007KT 12SM OVC013 10/08 A2953 RMK SC8 WNDY HILL UNAVBL CIG RAG SLP000
Loading
Personal Weather Stations






























Interactive Weather Map
Tropical Storm Tracking
New forecast layout! Learn more

10-Day Weather Forecast

Advertisements
Track Severe Weather on mobile